Time;durP1;ratioP1;P1;durP2;ratioP2;P2;SDS_P1;SDS_P2;PMS_P1;PMS_P2;Temp;Humidity;BMP_temperature;BMP_pressure;BME280_temperature;BME280_humidity;BME280_pressure;Samples;Min_cycle;Max_cycle;Signal;HPM_P1;HPM_P2
2022/03/17 00:02:23;;;;;;;62.80;27.42;;;8.10;99.90;;;;;;5011045;28;20038;-70
2022/03/17 00:04:49;;;;;;;62.67;27.67;;;8.10;99.90;;;;;;5010746;28;20022;-70
2022/03/17 00:07:15;;;;;;;60.25;26.45;;;8.10;99.90;;;;;;5010768;28;20053;-70
2022/03/17 00:09:41;;;;;;;67.13;27.17;;;8.10;99.90;;;;;;5010876;28;20503;-68
2022/03/17 00:12:08;;;;;;;64.50;27.08;;;8.10;99.90;;;;;;5010759;28;20038;-71
2022/03/17 00:14:34;;;;;;;66.50;26.67;;;8.00;99.90;;;;;;5009735;28;20034;-71
2022/03/17 00:17:00;;;;;;;61.28;26.42;;;8.00;99.90;;;;;;5010169;28;20041;-71
2022/03/17 00:19:26;;;;;;;60.70;25.92;;;8.00;99.90;;;;;;5010831;28;20030;-70
2022/03/17 00:21:52;;;;;;;65.70;27.77;;;7.90;99.90;;;;;;5009891;28;20061;-71
2022/03/17 00:24:18;;;;;;;62.00;27.00;;;7.90;99.90;;;;;;5011320;28;20095;-70
2022/03/17 00:26:43;;;;;;;63.33;27.15;;;7.90;99.90;;;;;;5012869;28;20743;-69
2022/03/17 00:29:09;;;;;;;61.72;26.77;;;7.90;99.90;;;;;;5010765;28;20518;-70
2022/03/17 00:31:37;;;;;;;63.20;26.92;;;7.90;99.90;;;;;;5010036;28;20034;-70
2022/03/17 00:34:07;;;;;;;59.58;25.38;;;7.90;99.90;;;;;;5010373;28;20092;-70
2022/03/17 00:36:34;;;;;;;64.15;27.00;;;7.90;99.90;;;;;;5010373;28;20084;-73
2022/03/17 00:39:00;;;;;;;62.83;27.27;;;7.80;99.90;;;;;;5010875;28;20057;-71
2022/03/17 00:41:26;;;;;;;62.35;25.95;;;7.80;99.90;;;;;;5020176;28;20038;-69
2022/03/17 00:43:53;;;;;;;62.38;26.15;;;7.80;99.90;;;;;;5009933;28;20195;-70
2022/03/17 00:46:20;;;;;;;60.10;26.05;;;7.80;99.90;;;;;;5019329;28;20047;-71
2022/03/17 00:48:45;;;;;;;59.08;25.27;;;7.80;99.90;;;;;;5012971;28;20393;-70
2022/03/17 00:51:11;;;;;;;63.65;27.02;;;7.70;99.90;;;;;;5009861;28;20103;-69
2022/03/17 00:53:37;;;;;;;61.25;25.73;;;7.70;99.90;;;;;;5009385;28;20037;-71
2022/03/17 00:56:02;;;;;;;60.92;26.45;;;7.70;99.90;;;;;;5010428;28;20065;-71
2022/03/17 00:58:29;;;;;;;61.90;25.98;;;7.70;99.90;;;;;;5010491;28;20122;-72
2022/03/17 01:00:55;;;;;;;62.65;26.90;;;7.70;99.90;;;;;;5009829;28;20018;-71
2022/03/17 01:03:20;;;;;;;61.40;26.70;;;7.70;99.90;;;;;;5012536;28;20057;-70
2022/03/17 01:05:46;;;;;;;67.35;26.75;;;7.70;99.90;;;;;;5009242;28;20038;-69
2022/03/17 01:08:12;;;;;;;58.35;25.10;;;7.70;99.90;;;;;;5014597;28;20034;-70
2022/03/17 01:10:38;;;;;;;59.15;25.83;;;7.70;99.90;;;;;;5008301;28;20365;-71
2022/03/17 01:13:06;;;;;;;64.85;25.77;;;7.70;99.90;;;;;;5013361;28;20025;-71
2022/03/17 01:15:32;;;;;;;65.18;26.52;;;7.70;99.90;;;;;;5010012;28;20040;-70
2022/03/17 01:17:57;;;;;;;60.72;25.88;;;7.70;99.90;;;;;;5010506;28;20053;-71
2022/03/17 01:20:23;;;;;;;60.45;26.00;;;7.60;99.90;;;;;;5009682;28;20030;-70
2022/03/17 01:22:49;;;;;;;63.70;26.40;;;7.70;99.90;;;;;;5009116;28;20431;-71
2022/03/17 01:25:15;;;;;;;56.13;24.77;;;7.70;99.90;;;;;;5009717;28;20036;-69
2022/03/17 01:27:40;;;;;;;55.60;24.40;;;7.70;99.90;;;;;;5012585;28;20030;-70
2022/03/17 01:30:10;;;;;;;56.03;23.05;;;7.70;99.90;;;;;;5020111;28;20140;-70
2022/03/17 01:32:38;;;;;;;53.70;23.45;;;7.70;99.90;;;;;;5009404;28;20384;-72
2022/03/17 01:35:07;;;;;;;59.05;24.73;;;7.60;99.90;;;;;;5013477;28;20034;-69
2022/03/17 01:37:33;;;;;;;57.10;23.55;;;7.60;99.90;;;;;;4995034;28;20124;-71
2022/03/17 01:39:59;;;;;;;61.25;24.45;;;7.60;99.90;;;;;;5009728;28;20046;-71
2022/03/17 01:42:24;;;;;;;59.15;23.88;;;7.70;99.90;;;;;;5009679;28;20029;-71
2022/03/17 01:44:50;;;;;;;55.15;23.33;;;7.60;99.90;;;;;;5008176;28;20100;-70
2022/03/17 01:47:28;;;;;;;55.40;24.08;;;7.60;99.90;;;;;;5009244;28;20464;-71
2022/03/17 01:50:07;;;;;;;59.72;24.75;;;7.60;99.90;;;;;;5008593;28;20116;-70
2022/03/17 01:52:33;;;;;;;52.90;24.25;;;7.70;99.90;;;;;;5010061;28;20121;-70
2022/03/17 01:54:59;;;;;;;55.97;23.17;;;7.60;99.90;;;;;;5009027;28;20040;-71
2022/03/17 01:57:25;;;;;;;56.53;23.38;;;7.60;99.90;;;;;;5009491;28;20109;-71
2022/03/17 01:59:52;;;;;;;53.50;22.50;;;7.60;99.90;;;;;;5008657;28;20058;-70
2022/03/17 02:02:18;;;;;;;57.35;23.67;;;7.60;99.90;;;;;;5017722;28;20132;-69
2022/03/17 02:04:47;;;;;;;55.42;23.38;;;7.60;99.90;;;;;;5009030;28;20109;-71
2022/03/17 02:07:14;;;;;;;51.25;22.45;;;7.60;99.90;;;;;;5008782;28;20487;-70
2022/03/17 02:09:41;;;;;;;54.03;22.85;;;7.60;99.90;;;;;;5007210;28;20026;-74
2022/03/17 02:14:53;;;;;;;58.53;23.50;;;7.60;99.90;;;;;;5007821;28;20423;-71
2022/03/17 02:17:20;;;;;;;56.13;23.77;;;7.50;99.90;;;;;;5008815;28;20132;-70
2022/03/17 02:19:46;;;;;;;57.15;24.10;;;7.50;99.90;;;;;;5007885;28;20030;-69
2022/03/17 02:22:15;;;;;;;56.60;22.83;;;7.50;99.90;;;;;;5008935;28;20030;-70
2022/03/17 02:27:33;;;;;;;54.97;22.25;;;7.50;99.90;;;;;;5008765;28;20048;-70
2022/03/17 02:29:59;;;;;;;57.55;24.65;;;7.50;99.90;;;;;;5007503;28;20070;-70
2022/03/17 02:32:25;;;;;;;57.67;24.83;;;7.50;99.90;;;;;;5009231;28;20029;-70
2022/03/17 02:34:52;;;;;;;53.55;23.55;;;7.50;99.90;;;;;;5007904;28;20041;-70
2022/03/17 02:37:18;;;;;;;54.40;22.73;;;7.50;99.90;;;;;;5009245;28;20116;-69
2022/03/17 02:39:44;;;;;;;51.45;22.73;;;7.40;99.90;;;;;;5006854;28;20659;-71
2022/03/17 02:42:12;;;;;;;54.53;23.30;;;7.40;99.90;;;;;;5010293;28;20164;-71
2022/03/17 02:44:39;;;;;;;54.70;24.35;;;7.40;99.90;;;;;;5006698;28;20042;-73
2022/03/17 02:47:06;;;;;;;57.65;24.13;;;7.40;99.90;;;;;;5008824;28;20034;-73
2022/03/17 02:49:32;;;;;;;55.53;24.23;;;7.40;99.90;;;;;;5016845;28;20595;-70
2022/03/17 02:51:58;;;;;;;57.83;24.00;;;7.40;99.90;;;;;;5008170;28;20029;-71
2022/03/17 02:54:24;;;;;;;52.97;23.08;;;7.40;99.90;;;;;;5009292;28;20033;-69
2022/03/17 02:56:49;;;;;;;55.58;24.35;;;7.40;99.90;;;;;;5010120;28;20056;-70
2022/03/17 02:59:16;;;;;;;54.90;22.92;;;7.40;99.90;;;;;;5012526;28;20084;-71
2022/03/17 03:01:42;;;;;;;53.10;22.85;;;7.40;99.90;;;;;;5014418;28;20045;-73
2022/03/17 03:04:07;;;;;;;58.97;24.67;;;7.40;99.90;;;;;;5013239;28;20053;-70
2022/03/17 03:06:33;;;;;;;55.53;24.42;;;7.30;99.90;;;;;;5016792;28;20033;-71
2022/03/17 03:08:59;;;;;;;56.05;23.60;;;7.30;99.90;;;;;;5016877;28;20083;-70
2022/03/17 03:11:25;;;;;;;54.80;23.85;;;7.30;99.90;;;;;;5027146;28;20451;-71
2022/03/17 03:13:51;;;;;;;56.67;24.05;;;7.30;99.90;;;;;;5011980;28;20389;-71
2022/03/17 03:16:17;;;;;;;60.88;24.38;;;7.30;99.90;;;;;;5012362;28;20069;-70
2022/03/17 03:18:42;;;;;;;54.92;24.08;;;7.30;99.90;;;;;;5013851;28;20675;-73
2022/03/17 03:21:08;;;;;;;56.63;23.55;;;7.30;99.90;;;;;;5030274;28;20029;-69
2022/03/17 03:23:34;;;;;;;60.25;24.35;;;7.30;99.90;;;;;;5013229;28;20540;-70
2022/03/17 03:26:00;;;;;;;53.88;23.85;;;7.20;99.90;;;;;;5023971;28;20185;-70
2022/03/17 03:28:26;;;;;;;57.88;24.95;;;7.20;99.90;;;;;;5001563;28;20531;-70
2022/03/17 03:30:52;;;;;;;58.65;24.02;;;7.20;99.90;;;;;;5030510;28;20029;-70
2022/03/17 03:33:17;;;;;;;60.95;24.27;;;7.20;99.90;;;;;;5021074;28;20037;-71
2022/03/17 03:38:27;;;;;;;56.47;24.67;;;7.20;99.90;;;;;;5004477;28;20052;-71
2022/03/17 03:40:53;;;;;;;58.03;24.33;;;7.20;99.90;;;;;;5011055;28;20053;-71
2022/03/17 03:43:19;;;;;;;60.30;25.95;;;7.20;99.90;;;;;;5011861;28;20368;-70
2022/03/17 03:45:44;;;;;;;59.92;25.65;;;7.20;99.90;;;;;;5011071;28;20026;-73
2022/03/17 03:48:10;;;;;;;57.22;25.13;;;7.20;99.90;;;;;;5012629;28;20465;-70
2022/03/17 03:50:37;;;;;;;59.08;26.15;;;7.20;99.90;;;;;;5011298;28;20033;-70
2022/03/17 03:53:03;;;;;;;60.10;25.73;;;7.10;99.90;;;;;;5019064;28;20125;-70
2022/03/17 03:55:29;;;;;;;60.40;26.40;;;7.10;99.90;;;;;;5013295;28;20123;-71
2022/03/17 03:57:55;;;;;;;60.22;25.00;;;7.10;99.90;;;;;;5012146;28;20034;-70
2022/03/17 04:02:53;;;;;;;67.40;26.58;;;7.10;99.90;;;;;;5009729;28;20156;-71
2022/03/17 04:05:26;;;;;;;59.92;25.27;;;7.10;99.90;;;;;;5016785;28;20037;-71
2022/03/17 04:07:51;;;;;;;57.28;25.77;;;7.00;99.90;;;;;;5010130;28;20041;-69
2022/03/17 04:10:17;;;;;;;65.93;26.65;;;7.00;99.90;;;;;;5017003;28;20037;-70
2022/03/17 04:12:43;;;;;;;62.28;26.75;;;7.00;99.90;;;;;;5015473;28;20442;-74
2022/03/17 04:15:08;;;;;;;64.78;25.77;;;7.00;99.90;;;;;;5020833;28;20529;-71
2022/03/17 04:17:35;;;;;;;64.68;26.92;;;7.00;99.90;;;;;;5021005;28;20041;-70
2022/03/17 04:20:01;;;;;;;60.83;26.17;;;7.00;99.90;;;;;;5019451;28;20083;-70
2022/03/17 04:22:27;;;;;;;65.53;27.25;;;7.00;99.90;;;;;;5005166;28;20454;-70
2022/03/17 04:24:53;;;;;;;61.85;25.25;;;6.90;99.90;;;;;;5010518;28;20045;-70
2022/03/17 04:27:19;;;;;;;66.32;27.23;;;7.00;99.90;;;;;;5010103;28;20440;-69
2022/03/17 04:29:45;;;;;;;61.90;26.05;;;6.90;99.90;;;;;;4988642;28;20401;-73
2022/03/17 04:32:11;;;;;;;59.80;24.63;;;6.90;99.90;;;;;;4986949;28;20034;-69
2022/03/17 04:34:36;;;;;;;61.78;26.52;;;6.90;99.90;;;;;;4988297;28;20547;-70
2022/03/17 04:37:02;;;;;;;66.07;28.05;;;6.90;99.90;;;;;;4984631;28;20042;-70
2022/03/17 04:39:28;;;;;;;63.70;26.45;;;6.90;99.90;;;;;;4974510;28;20050;-70
2022/03/17 04:41:53;;;;;;;65.13;28.05;;;6.90;99.90;;;;;;4976164;28;20165;-70
2022/03/17 04:44:19;;;;;;;65.45;27.40;;;6.90;99.90;;;;;;4994205;28;20069;-70
2022/03/17 04:46:46;;;;;;;61.83;25.98;;;6.90;99.90;;;;;;5008046;28;20103;-73
2022/03/17 04:49:12;;;;;;;60.30;24.85;;;6.90;99.90;;;;;;5000149;28;20046;-69
2022/03/17 04:51:38;;;;;;;67.95;27.73;;;6.90;99.90;;;;;;4988351;28;20453;-68
2022/03/17 04:54:04;;;;;;;63.70;26.52;;;6.90;99.90;;;;;;4978175;28;20122;-70
2022/03/17 04:56:30;;;;;;;65.53;27.58;;;6.90;99.90;;;;;;4975647;28;20081;-70
2022/03/17 04:58:56;;;;;;;66.45;26.25;;;6.90;99.90;;;;;;4983763;28;20061;-69
2022/03/17 05:01:23;;;;;;;62.72;26.33;;;7.00;99.90;;;;;;4996088;28;20069;-69
2022/03/17 05:03:49;;;;;;;67.10;26.75;;;7.00;99.90;;;;;;5010824;28;20141;-72
2022/03/17 05:06:15;;;;;;;65.60;26.63;;;7.00;99.90;;;;;;5013125;28;20112;-69
2022/03/17 05:08:41;;;;;;;60.00;25.92;;;6.90;99.90;;;;;;5007997;28;20033;-69
2022/03/17 05:11:09;;;;;;;60.40;26.10;;;7.00;99.90;;;;;;5010150;28;20641;-68
2022/03/17 05:13:35;;;;;;;59.63;26.67;;;6.90;99.90;;;;;;5008916;28;20041;-70
2022/03/17 05:16:02;;;;;;;61.95;26.02;;;7.00;99.90;;;;;;5010276;28;20045;-69
2022/03/17 05:18:28;;;;;;;61.80;26.15;;;7.00;99.90;;;;;;5007887;28;20438;-69
2022/03/17 05:20:53;;;;;;;63.30;25.98;;;7.00;99.90;;;;;;5014229;28;20029;-71
2022/03/17 05:23:20;;;;;;;57.35;24.05;;;6.90;99.90;;;;;;5008301;28;20476;-70
2022/03/17 05:25:48;;;;;;;57.28;24.63;;;6.90;99.90;;;;;;5009084;28;20185;-72
2022/03/17 05:28:14;;;;;;;59.55;25.90;;;7.00;99.90;;;;;;5007769;28;20581;-69
2022/03/17 05:30:41;;;;;;;61.78;25.60;;;7.00;99.90;;;;;;5013993;28;20026;-71
2022/03/17 05:33:07;;;;;;;61.47;25.15;;;7.00;99.90;;;;;;5011418;28;20037;-71
2022/03/17 05:35:34;;;;;;;63.45;26.58;;;6.90;99.90;;;;;;5008706;28;20044;-72
2022/03/17 05:38:00;;;;;;;65.53;27.13;;;7.00;99.90;;;;;;5008475;28;20527;-71
2022/03/17 05:40:26;;;;;;;62.83;25.95;;;6.90;99.90;;;;;;5008889;28;20030;-68
2022/03/17 05:42:57;;;;;;;61.95;24.40;;;7.00;99.90;;;;;;5008002;28;20040;-71
2022/03/17 05:45:27;;;;;;;63.92;26.63;;;7.00;99.90;;;;;;5009582;28;20109;-72
2022/03/17 05:47:55;;;;;;;63.63;25.20;;;7.00;99.90;;;;;;5008658;28;20033;-74
2022/03/17 05:50:22;;;;;;;64.25;27.17;;;7.00;99.90;;;;;;5008309;28;20037;-73
2022/03/17 05:52:49;;;;;;;67.35;27.35;;;7.00;99.90;;;;;;5009584;28;20412;-73
2022/03/17 05:55:17;;;;;;;64.05;25.60;;;6.90;99.90;;;;;;5039456;28;20477;-70
2022/03/17 05:57:45;;;;;;;61.53;25.33;;;6.90;99.90;;;;;;5009485;28;20464;-71
2022/03/17 06:00:16;;;;;;;60.45;26.02;;;6.90;99.90;;;;;;5008240;28;20017;-71
2022/03/17 06:02:42;;;;;;;65.63;26.33;;;6.90;99.90;;;;;;5009394;28;20373;-72
2022/03/17 06:05:09;;;;;;;61.00;26.25;;;6.90;99.90;;;;;;5007262;28;20037;-73
2022/03/17 06:07:42;;;;;;;61.50;26.00;;;6.90;99.90;;;;;;5009385;28;20030;-71
2022/03/17 06:10:13;;;;;;;68.88;26.50;;;6.90;99.90;;;;;;5008438;28;20025;-71
2022/03/17 06:12:39;;;;;;;59.60;25.83;;;6.90;99.90;;;;;;5008875;28;20033;-71
2022/03/17 06:15:07;;;;;;;60.80;26.02;;;7.00;99.90;;;;;;5006914;28;20033;-72
2022/03/17 06:17:58;;;;;;;63.45;25.48;;;7.00;99.90;;;;;;5012579;28;20037;-71
2022/03/17 06:20:26;;;;;;;61.83;25.65;;;7.00;99.90;;;;;;5010138;28;20061;-71
2022/03/17 06:22:54;;;;;;;63.92;26.85;;;7.00;99.90;;;;;;5008577;28;20184;-72
2022/03/17 06:25:22;;;;;;;67.05;27.75;;;7.00;99.90;;;;;;5007201;28;20029;-71
2022/03/17 06:27:49;;;;;;;66.80;27.65;;;7.00;99.90;;;;;;5016189;28;20718;-72
2022/03/17 06:30:19;;;;;;;62.72;26.20;;;6.90;99.90;;;;;;5019093;28;20099;-72
2022/03/17 06:32:46;;;;;;;67.20;25.38;;;6.90;99.90;;;;;;5014423;28;20171;-72
2022/03/17 06:35:17;;;;;;;63.58;26.10;;;6.90;99.90;;;;;;5011584;28;20038;-71
2022/03/17 06:37:47;;;;;;;62.65;27.52;;;7.00;99.90;;;;;;5013107;28;20503;-73
2022/03/17 06:40:13;;;;;;;62.20;26.52;;;6.90;99.90;;;;;;5012026;28;20686;-72
2022/03/17 06:42:39;;;;;;;66.57;27.77;;;7.00;99.90;;;;;;5011349;28;20038;-71
2022/03/17 06:45:06;;;;;;;59.50;26.25;;;7.00;99.90;;;;;;5011489;28;20045;-72
2022/03/17 06:47:31;;;;;;;63.53;26.52;;;7.00;99.90;;;;;;5012088;28;20060;-70
2022/03/17 06:49:57;;;;;;;62.63;26.25;;;7.10;99.90;;;;;;5011105;28;20065;-72
2022/03/17 06:52:23;;;;;;;66.45;26.30;;;7.10;99.90;;;;;;5012134;28;20041;-72
2022/03/17 06:54:50;;;;;;;65.85;26.98;;;7.10;99.90;;;;;;5010015;28;20070;-73
2022/03/17 06:57:19;;;;;;;67.60;26.98;;;7.10;99.90;;;;;;5010157;28;20077;-72
2022/03/17 06:59:46;;;;;;;59.72;26.88;;;7.10;99.90;;;;;;5012371;28;20373;-73
2022/03/17 07:02:12;;;;;;;67.75;27.50;;;7.20;99.90;;;;;;5011242;28;20103;-72
2022/03/17 07:04:38;;;;;;;61.00;26.08;;;7.20;99.90;;;;;;5011877;28;20045;-73
2022/03/17 07:07:05;;;;;;;62.92;27.27;;;7.30;99.90;;;;;;5011212;28;20041;-72
2022/03/17 07:09:31;;;;;;;67.28;27.20;;;7.30;99.90;;;;;;5012652;28;20033;-69
2022/03/17 07:11:56;;;;;;;65.15;27.35;;;7.30;99.90;;;;;;5011973;28;20025;-73
2022/03/17 07:14:22;;;;;;;65.88;26.83;;;7.40;99.90;;;;;;5010030;28;20117;-72
2022/03/17 07:16:47;;;;;;;66.43;27.83;;;7.40;99.90;;;;;;5012169;28;20046;-71
2022/03/17 07:19:13;;;;;;;69.00;27.98;;;7.40;99.90;;;;;;5011435;28;20037;-72
2022/03/17 07:21:39;;;;;;;63.63;26.83;;;7.40;99.90;;;;;;5011569;28;20030;-72
2022/03/17 07:24:08;;;;;;;65.60;28.23;;;7.40;99.90;;;;;;5010881;28;20029;-72
2022/03/17 07:26:33;;;;;;;60.05;25.77;;;7.50;99.90;;;;;;5011943;28;20034;-71
2022/03/17 07:29:01;;;;;;;65.30;26.65;;;7.50;99.90;;;;;;5011306;28;20029;-71
2022/03/17 07:31:28;;;;;;;60.20;25.23;;;7.60;99.90;;;;;;5014541;28;20084;-71
2022/03/17 07:33:53;;;;;;;68.95;26.70;;;7.60;99.90;;;;;;5010186;28;20040;-72
2022/03/17 07:36:20;;;;;;;63.30;27.25;;;7.60;99.90;;;;;;5009796;28;20038;-72
2022/03/17 07:38:46;;;;;;;67.05;28.02;;;7.60;99.90;;;;;;5024570;28;20076;-71
2022/03/17 07:41:13;;;;;;;68.55;28.10;;;7.60;99.90;;;;;;5010175;28;20030;-73
2022/03/17 07:43:38;;;;;;;65.20;27.33;;;7.60;99.90;;;;;;5009284;28;20828;-73
2022/03/17 07:46:04;;;;;;;63.70;27.17;;;7.60;99.90;;;;;;5010003;28;20050;-71
2022/03/17 07:48:30;;;;;;;64.93;27.35;;;7.60;99.90;;;;;;5010256;28;20026;-72
2022/03/17 07:50:56;;;;;;;59.55;25.77;;;7.70;99.90;;;;;;5010661;28;20433;-73
2022/03/17 07:53:21;;;;;;;57.63;26.70;;;7.70;99.90;;;;;;5010692;28;20073;-72
2022/03/17 07:55:47;;;;;;;64.20;26.63;;;7.80;99.90;;;;;;5009554;28;20474;-71
2022/03/17 07:58:13;;;;;;;64.55;27.15;;;7.90;99.90;;;;;;5010568;28;20464;-72
2022/03/17 08:00:41;;;;;;;72.80;28.58;;;7.90;99.90;;;;;;5019174;28;20029;-72
2022/03/17 08:03:07;;;;;;;64.60;27.60;;;8.00;99.90;;;;;;5009979;28;20464;-72
2022/03/17 08:05:32;;;;;;;67.32;29.08;;;8.00;99.90;;;;;;5011060;28;20158;-71
2022/03/17 08:08:02;;;;;;;66.05;26.95;;;8.00;99.90;;;;;;5009391;28;20069;-72
2022/03/17 08:10:30;;;;;;;64.50;27.20;;;8.00;99.90;;;;;;5008822;28;20037;-72
2022/03/17 08:12:56;;;;;;;68.75;29.05;;;8.00;99.90;;;;;;5009804;28;20464;-71
2022/03/17 08:15:22;;;;;;;59.65;26.73;;;8.10;99.90;;;;;;5007868;28;20041;-71
2022/03/17 08:17:48;;;;;;;64.32;28.45;;;8.20;99.90;;;;;;5010238;28;20041;-72
2022/03/17 08:20:14;;;;;;;68.63;28.90;;;8.30;99.90;;;;;;5008564;28;20034;-73
2022/03/17 08:22:42;;;;;;;67.47;28.65;;;8.30;99.90;;;;;;5010078;28;20041;-72
2022/03/17 08:25:08;;;;;;;64.97;26.85;;;8.30;99.90;;;;;;5009808;28;20026;-74
2022/03/17 08:27:37;;;;;;;76.32;31.58;;;8.30;99.90;;;;;;5011119;28;20073;-73
2022/03/17 08:30:03;;;;;;;63.08;27.38;;;8.40;99.90;;;;;;5010273;28;20353;-73
2022/03/17 08:32:29;;;;;;;62.72;27.67;;;8.40;99.90;;;;;;5010350;28;20112;-72
2022/03/17 08:34:55;;;;;;;64.95;27.75;;;8.40;99.90;;;;;;5010669;28;20105;-72
2022/03/17 08:37:20;;;;;;;66.78;27.73;;;8.40;99.90;;;;;;5009486;28;20034;-72
2022/03/17 08:39:48;;;;;;;61.25;26.98;;;8.50;99.90;;;;;;5010553;28;20052;-72
2022/03/17 08:42:14;;;;;;;59.08;27.38;;;8.60;99.90;;;;;;5009341;28;20034;-72
2022/03/17 08:44:40;;;;;;;70.78;26.30;;;8.60;99.90;;;;;;5010231;28;20033;-73
2022/03/17 08:49:50;;;;;;;65.10;27.67;;;8.50;99.90;;;;;;5009930;28;20037;-73
2022/03/17 08:52:16;;;;;;;65.10;27.92;;;8.60;99.90;;;;;;5009580;28;20402;-72
2022/03/17 08:54:44;;;;;;;61.75;27.40;;;8.60;99.90;;;;;;5003530;28;20029;-72
2022/03/17 08:57:11;;;;;;;66.25;28.55;;;8.50;99.90;;;;;;5008779;28;20026;-71
2022/03/17 08:59:37;;;;;;;66.60;29.60;;;8.60;99.90;;;;;;5013090;28;20021;-72
2022/03/17 09:02:06;;;;;;;65.55;28.50;;;8.60;99.90;;;;;;5015237;28;20065;-75
2022/03/17 09:04:32;;;;;;;60.67;26.77;;;8.70;99.90;;;;;;5009846;28;20459;-73
2022/03/17 09:06:59;;;;;;;66.32;27.23;;;8.70;99.90;;;;;;5008316;28;20396;-73
2022/03/17 09:09:37;;;;;;;61.17;26.40;;;8.80;99.90;;;;;;5009413;28;20030;-73
2022/03/17 09:12:06;;;;;;;59.53;26.63;;;8.90;99.90;;;;;;5008414;28;20053;-72
2022/03/17 09:14:33;;;;;;;57.10;25.52;;;8.90;99.90;;;;;;5008883;28;20113;-73
2022/03/17 09:16:58;;;;;;;64.30;27.20;;;8.90;99.90;;;;;;5009551;28;20117;-73
2022/03/17 09:19:24;;;;;;;62.97;25.80;;;8.90;99.90;;;;;;5008673;28;20125;-73
2022/03/17 09:21:51;;;;;;;63.78;27.73;;;9.00;99.90;;;;;;5009958;28;20044;-73
2022/03/17 09:24:17;;;;;;;57.10;26.30;;;9.00;99.90;;;;;;5009470;28;20137;-73
2022/03/17 09:26:43;;;;;;;64.00;27.38;;;9.00;99.90;;;;;;5009585;28;20053;-73
2022/03/17 09:29:09;;;;;;;60.67;25.85;;;9.10;99.90;;;;;;5009005;28;20025;-74
2022/03/17 09:31:35;;;;;;;61.65;26.45;;;9.10;99.90;;;;;;5011650;28;20030;-72
2022/03/17 09:34:01;;;;;;;65.35;27.30;;;9.20;99.90;;;;;;5008303;28;20440;-71
2022/03/17 09:36:27;;;;;;;64.70;27.50;;;9.10;99.90;;;;;;5007602;28;20472;-70
2022/03/17 09:41:37;;;;;;;61.67;27.35;;;8.90;99.90;;;;;;5009306;28;20033;-72
2022/03/17 09:44:04;;;;;;;61.05;25.90;;;8.80;99.90;;;;;;5009673;28;20405;-72
2022/03/17 09:46:31;;;;;;;61.55;26.92;;;8.90;99.90;;;;;;5007808;28;20029;-72
2022/03/17 09:48:58;;;;;;;61.30;25.80;;;8.90;99.90;;;;;;5009882;28;20045;-73
2022/03/17 09:51:26;;;;;;;60.17;26.88;;;8.90;99.90;;;;;;5008849;28;20022;-74
2022/03/17 09:53:53;;;;;;;67.45;27.38;;;9.00;99.90;;;;;;5009008;28;20238;-71
2022/03/17 09:56:23;;;;;;;63.25;27.25;;;8.90;99.90;;;;;;5008328;28;20488;-74
2022/03/17 09:58:53;;;;;;;58.87;25.77;;;9.00;99.90;;;;;;5009399;28;20045;-72
2022/03/17 10:01:23;;;;;;;60.40;25.67;;;9.00;99.90;;;;;;5034586;28;20404;-72
2022/03/17 10:03:51;;;;;;;59.83;25.20;;;9.10;99.90;;;;;;5009774;28;20050;-71
2022/03/17 10:06:17;;;;;;;60.80;26.15;;;9.20;99.90;;;;;;5010019;28;20108;-72
2022/03/17 10:08:45;;;;;;;61.03;25.73;;;9.20;99.90;;;;;;5018105;28;20118;-72
2022/03/17 10:11:15;;;;;;;62.55;27.88;;;9.20;99.90;;;;;;5007931;28;20038;-73
2022/03/17 10:13:48;;;;;;;57.27;25.67;;;9.10;99.90;;;;;;5008828;28;20141;-73
2022/03/17 10:16:19;;;;;;;60.15;26.60;;;9.20;99.90;;;;;;5008811;28;20288;-73
2022/03/17 10:18:55;;;;;;;57.58;27.00;;;9.20;99.90;;;;;;5009215;28;20034;-73
2022/03/17 10:21:27;;;;;;;58.45;25.98;;;9.20;99.90;;;;;;5008399;28;20056;-72
2022/03/17 10:24:08;;;;;;;63.63;28.30;;;9.30;99.90;;;;;;5005719;28;20034;-71
2022/03/17 10:26:44;;;;;;;60.97;27.67;;;9.50;99.90;;;;;;5009011;28;20125;-71
2022/03/17 10:29:21;;;;;;;60.83;27.13;;;9.50;99.90;;;;;;5003735;28;20030;-72
2022/03/17 10:32:03;;;;;;;63.03;27.92;;;9.50;99.90;;;;;;5008632;28;20503;-72
2022/03/17 10:34:55;;;;;;;66.20;29.38;;;9.50;99.90;;;;;;5006945;28;20045;-71
2022/03/17 10:37:23;;;;;;;60.47;26.58;;;9.50;99.90;;;;;;5003489;28;20133;-72
2022/03/17 10:39:55;;;;;;;63.63;27.05;;;9.50;99.90;;;;;;5003976;28;20038;-71
2022/03/17 10:42:29;;;;;;;64.30;28.88;;;9.40;99.90;;;;;;5008368;28;20030;-72
2022/03/17 10:45:06;;;;;;;63.63;27.67;;;9.50;99.90;;;;;;5008131;28;20234;-73
2022/03/17 10:47:36;;;;;;;62.92;27.58;;;9.60;99.90;;;;;;5006971;28;20103;-73
2022/03/17 10:50:13;;;;;;;64.53;26.95;;;9.60;99.90;;;;;;5034188;28;20083;-72
2022/03/17 10:53:02;;;;;;;65.13;28.52;;;9.70;99.90;;;;;;5007048;28;20101;-73
2022/03/17 10:55:30;;;;;;;63.15;27.60;;;9.70;99.90;;;;;;5002906;28;20065;-74
2022/03/17 10:58:09;;;;;;;63.22;27.20;;;9.70;99.90;;;;;;5008450;28;20040;-73
2022/03/17 11:00:57;;;;;;;61.85;28.25;;;9.70;99.90;;;;;;5007745;28;20028;-73
2022/03/17 11:03:24;;;;;;;59.50;26.70;;;9.80;99.90;;;;;;5005999;28;20041;-73
2022/03/17 11:05:53;;;;;;;62.00;27.63;;;9.80;99.90;;;;;;5008150;28;20034;-73
2022/03/17 11:08:20;;;;;;;66.18;28.67;;;9.90;99.90;;;;;;5005922;28;20040;-73
2022/03/17 11:10:46;;;;;;;64.10;29.08;;;10.00;99.90;;;;;;5009611;28;20017;-73
2022/03/17 11:13:12;;;;;;;66.85;28.10;;;10.10;99.90;;;;;;5007550;28;20060;-69
2022/03/17 11:15:41;;;;;;;65.80;29.45;;;10.00;99.90;;;;;;5007785;28;20033;-69
2022/03/17 11:18:12;;;;;;;68.00;28.50;;;10.10;99.90;;;;;;5008743;28;20034;-72
2022/03/17 11:20:38;;;;;;;65.72;27.42;;;10.10;99.90;;;;;;5008831;28;20455;-72
2022/03/17 11:23:20;;;;;;;64.03;28.48;;;10.10;99.90;;;;;;5010172;28;20030;-73
2022/03/17 11:25:57;;;;;;;62.92;27.40;;;9.90;99.90;;;;;;5008986;28;20366;-73
2022/03/17 11:28:37;;;;;;;64.35;28.65;;;10.00;99.90;;;;;;5009882;28;20044;-74
2022/03/17 11:31:08;;;;;;;63.38;28.08;;;10.10;99.90;;;;;;5020139;28;20492;-71
2022/03/17 11:33:39;;;;;;;62.75;28.10;;;10.20;99.90;;;;;;5011888;28;20049;-73
2022/03/17 11:36:08;;;;;;;69.25;31.05;;;10.20;99.90;;;;;;5011932;28;20108;-72
2022/03/17 11:38:36;;;;;;;68.65;29.67;;;10.20;99.90;;;;;;5010108;28;20364;-72
2022/03/17 11:41:15;;;;;;;68.13;28.67;;;10.20;99.90;;;;;;5011315;28;20026;-73
2022/03/17 11:43:47;;;;;;;62.58;28.98;;;10.30;99.90;;;;;;5011830;28;20384;-74
2022/03/17 11:46:17;;;;;;;61.35;27.60;;;10.30;99.90;;;;;;5010935;28;20080;-74
2022/03/17 11:48:46;;;;;;;67.38;28.88;;;10.30;99.90;;;;;;5011711;28;20096;-73
2022/03/17 11:51:15;;;;;;;64.80;27.75;;;10.30;99.90;;;;;;5010919;28;20544;-75
2022/03/17 11:53:53;;;;;;;63.05;27.60;;;10.30;99.90;;;;;;5011804;28;20033;-74
2022/03/17 11:56:35;;;;;;;68.45;29.45;;;10.30;99.90;;;;;;5010452;28;20502;-73
2022/03/17 11:59:00;;;;;;;61.50;29.13;;;10.30;99.90;;;;;;5011097;28;20519;-73
2022/03/17 12:01:34;;;;;;;62.75;27.45;;;10.40;99.90;;;;;;5025070;28;20018;-72
2022/03/17 12:04:01;;;;;;;62.58;28.77;;;10.50;99.90;;;;;;5010799;28;20111;-72
2022/03/17 12:06:31;;;;;;;69.82;29.00;;;10.50;99.90;;;;;;5010576;28;20061;-73
2022/03/17 12:08:59;;;;;;;63.83;28.55;;;10.60;99.90;;;;;;5011265;28;20057;-75
2022/03/17 12:11:27;;;;;;;64.43;28.95;;;10.60;99.90;;;;;;5010165;28;20030;-73
2022/03/17 12:14:16;;;;;;;63.78;28.80;;;10.50;99.90;;;;;;5008047;28;20030;-74
2022/03/17 12:16:51;;;;;;;63.53;29.08;;;10.50;99.90;;;;;;5010832;28;20034;-74
2022/03/17 12:19:35;;;;;;;72.05;29.45;;;10.50;99.90;;;;;;5008353;28;20389;-74
2022/03/17 12:22:00;;;;;;;67.35;28.27;;;10.60;99.90;;;;;;5011108;28;20142;-73
2022/03/17 12:24:46;;;;;;;68.30;27.92;;;10.40;99.90;;;;;;5010328;28;20026;-74
2022/03/17 12:27:17;;;;;;;68.95;29.52;;;10.40;99.90;;;;;;5009963;28;20033;-74
2022/03/17 12:29:45;;;;;;;67.05;29.95;;;10.50;99.90;;;;;;5010978;28;20034;-72
2022/03/17 12:32:21;;;;;;;62.90;27.42;;;10.50;99.90;;;;;;5009698;28;20034;-74
2022/03/17 12:34:49;;;;;;;65.90;28.92;;;10.60;99.90;;;;;;5017959;28;20034;-73
2022/03/17 12:37:17;;;;;;;73.68;31.40;;;10.70;99.90;;;;;;5010050;28;20117;-75
2022/03/17 12:39:48;;;;;;;58.75;26.85;;;10.70;99.90;;;;;;5008633;28;20042;-74
2022/03/17 12:42:23;;;;;;;64.22;30.63;;;10.70;99.90;;;;;;5008452;28;20064;-76
2022/03/17 12:44:57;;;;;;;65.75;29.38;;;10.60;99.90;;;;;;5010261;28;20037;-73
2022/03/17 12:47:25;;;;;;;61.63;27.90;;;10.60;99.90;;;;;;5007120;28;20041;-73
2022/03/17 12:49:52;;;;;;;60.53;27.08;;;10.60;99.90;;;;;;5009231;28;20033;-72
2022/03/17 12:52:30;;;;;;;73.13;28.65;;;10.60;99.90;;;;;;5012024;28;20065;-73
2022/03/17 12:54:59;;;;;;;62.25;28.10;;;10.70;99.90;;;;;;5007547;28;20062;-73
2022/03/17 12:57:27;;;;;;;67.53;29.20;;;10.80;99.90;;;;;;5008385;28;20096;-73